Terminal Aerodrome Forecast
Issued by NWS Shreveport, LA

Home | Current Version | Previous Version | Text Only | Print | Product List | Glossary On
Versions: 1 2 3 4 5 6 7 8 9 10 11 12 13 14 15 16 17
000
FTUS44 KSHV 012000 AAB
TAFMLU
TAF AMD
KMLU 012042Z 0121/0218 23015G25KT P6SM VCTS SCT030CB OVC050
      TEMPO 0121/0123 VRB20G40KT 2SM TSRAGS BR OVC020CB
     FM012300 31015G25KT P6SM SCT020 BKN080
     FM020500 32014G22KT P6SM SKC
     FM021600 35012KT P6SM SKC=

USA.gov is the U.S. government's official web portal to all federal, state and local government web resources and services.